Marksville, Louisiana
Current Conditions -  °F | °C
As of 3:53 AM on Saturday 22 Nov 2014 (Local Time) from KESF Reporting Station
Overcast Overcast  
Wind Chill: 58°   Ceiling: 11000
Heat Index: 58°   Visibility: 10mi
Dew Point: 51°   Wind: 5mph
Humidity: 78%   Direction: 100°E
Pressure: 30.21"   Gusts: NA
Location:  31.13°N, 92.06°W
Report Text: KESF 220953Z AUTO 10004KT 10SM OVC110 14/11 A3021 RMK AO2 SLP228 T01440106
Loading
Personal Weather Stations






























Interactive Weather Map New forecast layout! Learn more

10-Day Weather Forecast

Advertisements
Track Severe Weather on mobile